sensor_id;sensor_type;location;lat;lon;timestamp;P1;durP1;ratioP1;P2;durP2;ratioP2
68234;SDS011;55052;52.056;5.296;2023-04-06T00:00:09;18.42;;;9.43;;
68234;SDS011;55052;52.056;5.296;2023-04-06T00:02:37;19.08;;;9.90;;
68234;SDS011;55052;52.056;5.296;2023-04-06T00:05:04;17.05;;;9.70;;
68234;SDS011;55052;52.056;5.296;2023-04-06T00:07:31;15.50;;;9.77;;
68234;SDS011;55052;52.056;5.296;2023-04-06T00:09:59;15.63;;;9.95;;
68234;SDS011;55052;52.056;5.296;2023-04-06T00:12:26;15.98;;;9.90;;
68234;SDS011;55052;52.056;5.296;2023-04-06T00:14:53;19.15;;;10.05;;
68234;SDS011;55052;52.056;5.296;2023-04-06T00:17:20;15.80;;;9.68;;
68234;SDS011;55052;52.056;5.296;2023-04-06T00:19:48;16.02;;;9.45;;
68234;SDS011;55052;52.056;5.296;2023-04-06T00:22:15;15.13;;;9.35;;
68234;SDS011;55052;52.056;5.296;2023-04-06T00:24:42;15.73;;;9.45;;
68234;SDS011;55052;52.056;5.296;2023-04-06T00:27:09;14.07;;;9.05;;
68234;SDS011;55052;52.056;5.296;2023-04-06T00:29:36;16.77;;;9.43;;
68234;SDS011;55052;52.056;5.296;2023-04-06T00:32:03;14.27;;;9.32;;
68234;SDS011;55052;52.056;5.296;2023-04-06T00:34:30;18.77;;;9.57;;
68234;SDS011;55052;52.056;5.296;2023-04-06T00:36:57;18.15;;;10.27;;
68234;SDS011;55052;52.056;5.296;2023-04-06T00:39:24;17.23;;;9.55;;
68234;SDS011;55052;52.056;5.296;2023-04-06T00:41:52;15.43;;;9.48;;
68234;SDS011;55052;52.056;5.296;2023-04-06T00:44:19;14.85;;;9.20;;
68234;SDS011;55052;52.056;5.296;2023-04-06T00:46:47;15.68;;;9.27;;
68234;SDS011;55052;52.056;5.296;2023-04-06T00:49:15;15.20;;;8.85;;
68234;SDS011;55052;52.056;5.296;2023-04-06T00:51:42;15.43;;;9.20;;
68234;SDS011;55052;52.056;5.296;2023-04-06T00:54:09;16.17;;;9.52;;
68234;SDS011;55052;52.056;5.296;2023-04-06T00:56:36;16.08;;;9.93;;
68234;SDS011;55052;52.056;5.296;2023-04-06T00:59:03;16.75;;;9.18;;
68234;SDS011;55052;52.056;5.296;2023-04-06T01:01:29;14.10;;;9.20;;
68234;SDS011;55052;52.056;5.296;2023-04-06T01:03:58;15.23;;;9.38;;
68234;SDS011;55052;52.056;5.296;2023-04-06T01:06:26;16.15;;;9.13;;
68234;SDS011;55052;52.056;5.296;2023-04-06T01:08:53;17.30;;;9.38;;
68234;SDS011;55052;52.056;5.296;2023-04-06T01:11:20;14.75;;;9.30;;
68234;SDS011;55052;52.056;5.296;2023-04-06T01:13:47;15.77;;;9.20;;
68234;SDS011;55052;52.056;5.296;2023-04-06T01:16:14;15.48;;;9.18;;
68234;SDS011;55052;52.056;5.296;2023-04-06T01:18:41;15.90;;;9.82;;
68234;SDS011;55052;52.056;5.296;2023-04-06T01:21:09;16.35;;;9.35;;
68234;SDS011;55052;52.056;5.296;2023-04-06T01:23:44;16.05;;;9.18;;
68234;SDS011;55052;52.056;5.296;2023-04-06T01:26:14;14.65;;;9.05;;
68234;SDS011;55052;52.056;5.296;2023-04-06T01:28:41;19.42;;;10.00;;
68234;SDS011;55052;52.056;5.296;2023-04-06T01:31:10;17.30;;;9.43;;
68234;SDS011;55052;52.056;5.296;2023-04-06T01:33:37;16.40;;;9.73;;
68234;SDS011;55052;52.056;5.296;2023-04-06T01:36:04;16.60;;;9.48;;
68234;SDS011;55052;52.056;5.296;2023-04-06T01:38:31;15.82;;;9.20;;
68234;SDS011;55052;52.056;5.296;2023-04-06T01:40:58;16.95;;;9.15;;
68234;SDS011;55052;52.056;5.296;2023-04-06T01:43:25;14.18;;;8.70;;
68234;SDS011;55052;52.056;5.296;2023-04-06T01:45:52;15.07;;;9.38;;
68234;SDS011;55052;52.056;5.296;2023-04-06T01:48:19;14.20;;;8.50;;
68234;SDS011;55052;52.056;5.296;2023-04-06T01:50:46;14.35;;;8.95;;
68234;SDS011;55052;52.056;5.296;2023-04-06T01:53:13;17.45;;;9.43;;
68234;SDS011;55052;52.056;5.296;2023-04-06T01:55:40;15.18;;;8.88;;
68234;SDS011;55052;52.056;5.296;2023-04-06T01:58:08;14.90;;;8.93;;
68234;SDS011;55052;52.056;5.296;2023-04-06T02:00:36;16.98;;;8.98;;
68234;SDS011;55052;52.056;5.296;2023-04-06T02:03:03;13.68;;;9.02;;
68234;SDS011;55052;52.056;5.296;2023-04-06T02:05:31;16.13;;;8.90;;
68234;SDS011;55052;52.056;5.296;2023-04-06T02:08:04;14.38;;;9.25;;
68234;SDS011;55052;52.056;5.296;2023-04-06T02:10:31;15.27;;;8.75;;
68234;SDS011;55052;52.056;5.296;2023-04-06T02:13:01;16.77;;;9.27;;
68234;SDS011;55052;52.056;5.296;2023-04-06T02:15:28;14.80;;;8.40;;
68234;SDS011;55052;52.056;5.296;2023-04-06T02:17:57;15.30;;;8.95;;
68234;SDS011;55052;52.056;5.296;2023-04-06T02:20:25;15.17;;;8.90;;
68234;SDS011;55052;52.056;5.296;2023-04-06T02:22:52;14.75;;;8.77;;
68234;SDS011;55052;52.056;5.296;2023-04-06T02:25:19;14.88;;;8.95;;
68234;SDS011;55052;52.056;5.296;2023-04-06T02:27:46;14.57;;;8.60;;
68234;SDS011;55052;52.056;5.296;2023-04-06T02:30:13;17.33;;;9.40;;
68234;SDS011;55052;52.056;5.296;2023-04-06T02:32:40;14.23;;;8.55;;
68234;SDS011;55052;52.056;5.296;2023-04-06T02:35:07;12.90;;;8.27;;
68234;SDS011;55052;52.056;5.296;2023-04-06T02:37:34;13.63;;;7.90;;
68234;SDS011;55052;52.056;5.296;2023-04-06T02:40:01;15.25;;;8.65;;
68234;SDS011;55052;52.056;5.296;2023-04-06T02:42:28;17.20;;;9.25;;
68234;SDS011;55052;52.056;5.296;2023-04-06T02:44:55;14.95;;;8.45;;
68234;SDS011;55052;52.056;5.296;2023-04-06T02:47:22;16.30;;;9.05;;
68234;SDS011;55052;52.056;5.296;2023-04-06T02:49:49;14.23;;;7.88;;
68234;SDS011;55052;52.056;5.296;2023-04-06T02:52:16;16.38;;;9.10;;
68234;SDS011;55052;52.056;5.296;2023-04-06T02:54:44;16.67;;;8.85;;
68234;SDS011;55052;52.056;5.296;2023-04-06T02:57:11;14.88;;;8.63;;
68234;SDS011;55052;52.056;5.296;2023-04-06T02:59:38;12.82;;;8.57;;
68234;SDS011;55052;52.056;5.296;2023-04-06T03:02:05;16.60;;;8.80;;
68234;SDS011;55052;52.056;5.296;2023-04-06T03:04:32;16.08;;;9.35;;
68234;SDS011;55052;52.056;5.296;2023-04-06T03:06:59;14.27;;;8.70;;
68234;SDS011;55052;52.056;5.296;2023-04-06T03:09:26;14.88;;;8.20;;
68234;SDS011;55052;52.056;5.296;2023-04-06T03:11:53;16.90;;;9.07;;
68234;SDS011;55052;52.056;5.296;2023-04-06T03:14:21;17.40;;;9.35;;
68234;SDS011;55052;52.056;5.296;2023-04-06T03:16:48;13.80;;;8.25;;
68234;SDS011;55052;52.056;5.296;2023-04-06T03:19:15;14.63;;;9.05;;
68234;SDS011;55052;52.056;5.296;2023-04-06T03:21:42;17.77;;;9.18;;
68234;SDS011;55052;52.056;5.296;2023-04-06T03:24:09;15.27;;;9.10;;
68234;SDS011;55052;52.056;5.296;2023-04-06T03:26:37;15.13;;;9.07;;
68234;SDS011;55052;52.056;5.296;2023-04-06T03:29:04;16.73;;;9.15;;
68234;SDS011;55052;52.056;5.296;2023-04-06T03:31:31;14.48;;;8.55;;
68234;SDS011;55052;52.056;5.296;2023-04-06T03:33:58;15.82;;;8.98;;
68234;SDS011;55052;52.056;5.296;2023-04-06T03:36:25;18.33;;;9.20;;
68234;SDS011;55052;52.056;5.296;2023-04-06T03:38:53;17.02;;;9.07;;
68234;SDS011;55052;52.056;5.296;2023-04-06T03:41:20;16.38;;;8.90;;
68234;SDS011;55052;52.056;5.296;2023-04-06T03:43:47;14.43;;;8.48;;
68234;SDS011;55052;52.056;5.296;2023-04-06T03:46:14;17.80;;;9.40;;
68234;SDS011;55052;52.056;5.296;2023-04-06T03:48:41;14.05;;;8.73;;
68234;SDS011;55052;52.056;5.296;2023-04-06T03:51:08;13.93;;;8.52;;
68234;SDS011;55052;52.056;5.296;2023-04-06T03:53:35;15.20;;;9.05;;
68234;SDS011;55052;52.056;5.296;2023-04-06T03:56:03;15.95;;;9.18;;
68234;SDS011;55052;52.056;5.296;2023-04-06T03:58:31;15.57;;;9.43;;
68234;SDS011;55052;52.056;5.296;2023-04-06T04:00:58;14.98;;;9.25;;
68234;SDS011;55052;52.056;5.296;2023-04-06T04:03:25;17.98;;;8.32;;
68234;SDS011;55052;52.056;5.296;2023-04-06T04:05:54;15.85;;;9.07;;
68234;SDS011;55052;52.056;5.296;2023-04-06T04:08:21;16.98;;;9.50;;
68234;SDS011;55052;52.056;5.296;2023-04-06T04:10:49;15.52;;;9.35;;
68234;SDS011;55052;52.056;5.296;2023-04-06T04:13:16;16.73;;;10.20;;
68234;SDS011;55052;52.056;5.296;2023-04-06T04:15:47;17.50;;;9.82;;
68234;SDS011;55052;52.056;5.296;2023-04-06T04:18:14;16.40;;;9.02;;
68234;SDS011;55052;52.056;5.296;2023-04-06T04:20:41;16.35;;;9.60;;
68234;SDS011;55052;52.056;5.296;2023-04-06T04:23:08;16.98;;;9.63;;
68234;SDS011;55052;52.056;5.296;2023-04-06T04:25:35;14.23;;;9.75;;
68234;SDS011;55052;52.056;5.296;2023-04-06T04:28:02;16.83;;;10.27;;
68234;SDS011;55052;52.056;5.296;2023-04-06T04:30:29;18.77;;;10.07;;
68234;SDS011;55052;52.056;5.296;2023-04-06T04:32:56;18.60;;;10.80;;
68234;SDS011;55052;52.056;5.296;2023-04-06T04:35:24;18.13;;;9.57;;
68234;SDS011;55052;52.056;5.296;2023-04-06T04:37:51;18.08;;;10.38;;
68234;SDS011;55052;52.056;5.296;2023-04-06T04:40:18;17.85;;;10.73;;
68234;SDS011;55052;52.056;5.296;2023-04-06T04:42:46;18.85;;;10.00;;
68234;SDS011;55052;52.056;5.296;2023-04-06T04:45:13;16.77;;;9.70;;
68234;SDS011;55052;52.056;5.296;2023-04-06T04:47:40;19.67;;;10.13;;
68234;SDS011;55052;52.056;5.296;2023-04-06T04:50:07;16.55;;;10.13;;
68234;SDS011;55052;52.056;5.296;2023-04-06T04:52:37;19.92;;;10.70;;
68234;SDS011;55052;52.056;5.296;2023-04-06T04:55:07;19.40;;;10.27;;
68234;SDS011;55052;52.056;5.296;2023-04-06T04:57:34;17.10;;;10.02;;
68234;SDS011;55052;52.056;5.296;2023-04-06T05:00:02;19.33;;;10.77;;
68234;SDS011;55052;52.056;5.296;2023-04-06T05:02:29;17.48;;;10.52;;
68234;SDS011;55052;52.056;5.296;2023-04-06T05:04:57;19.17;;;11.35;;
68234;SDS011;55052;52.056;5.296;2023-04-06T05:07:29;20.90;;;10.93;;
68234;SDS011;55052;52.056;5.296;2023-04-06T05:09:57;18.27;;;10.45;;
68234;SDS011;55052;52.056;5.296;2023-04-06T05:12:24;23.33;;;11.30;;
68234;SDS011;55052;52.056;5.296;2023-04-06T05:14:53;19.92;;;11.25;;
68234;SDS011;55052;52.056;5.296;2023-04-06T05:17:21;19.42;;;11.68;;
68234;SDS011;55052;52.056;5.296;2023-04-06T05:19:48;18.95;;;10.85;;
68234;SDS011;55052;52.056;5.296;2023-04-06T05:22:15;19.20;;;11.30;;
68234;SDS011;55052;52.056;5.296;2023-04-06T05:24:43;21.20;;;12.57;;
68234;SDS011;55052;52.056;5.296;2023-04-06T05:27:11;22.00;;;12.32;;
68234;SDS011;55052;52.056;5.296;2023-04-06T05:29:38;18.92;;;11.32;;
68234;SDS011;55052;52.056;5.296;2023-04-06T05:32:05;19.85;;;11.13;;
68234;SDS011;55052;52.056;5.296;2023-04-06T05:34:32;20.52;;;11.75;;
68234;SDS011;55052;52.056;5.296;2023-04-06T05:36:59;19.90;;;11.88;;
68234;SDS011;55052;52.056;5.296;2023-04-06T05:39:27;18.43;;;12.13;;
68234;SDS011;55052;52.056;5.296;2023-04-06T05:41:54;20.48;;;12.25;;
68234;SDS011;55052;52.056;5.296;2023-04-06T05:44:22;20.27;;;11.75;;
68234;SDS011;55052;52.056;5.296;2023-04-06T05:46:49;21.20;;;12.38;;
68234;SDS011;55052;52.056;5.296;2023-04-06T05:49:16;23.67;;;14.80;;
68234;SDS011;55052;52.056;5.296;2023-04-06T05:51:42;23.25;;;12.70;;
68234;SDS011;55052;52.056;5.296;2023-04-06T05:54:09;22.65;;;11.98;;
68234;SDS011;55052;52.056;5.296;2023-04-06T05:56:36;20.48;;;11.38;;
68234;SDS011;55052;52.056;5.296;2023-04-06T05:59:04;23.10;;;12.10;;
68234;SDS011;55052;52.056;5.296;2023-04-06T06:01:32;19.98;;;12.45;;
68234;SDS011;55052;52.056;5.296;2023-04-06T06:04:01;22.50;;;12.20;;
68234;SDS011;55052;52.056;5.296;2023-04-06T06:06:28;21.95;;;12.55;;
68234;SDS011;55052;52.056;5.296;2023-04-06T06:08:58;22.35;;;12.75;;
68234;SDS011;55052;52.056;5.296;2023-04-06T06:11:27;25.63;;;12.75;;
68234;SDS011;55052;52.056;5.296;2023-04-06T06:13:54;22.08;;;12.93;;
68234;SDS011;55052;52.056;5.296;2023-04-06T06:16:21;23.15;;;13.45;;
68234;SDS011;55052;52.056;5.296;2023-04-06T06:18:49;21.88;;;12.80;;
68234;SDS011;55052;52.056;5.296;2023-04-06T06:21:16;21.70;;;13.73;;
68234;SDS011;55052;52.056;5.296;2023-04-06T06:23:43;22.55;;;13.15;;
68234;SDS011;55052;52.056;5.296;2023-04-06T06:26:10;23.73;;;13.95;;
68234;SDS011;55052;52.056;5.296;2023-04-06T06:28:37;23.10;;;13.38;;
68234;SDS011;55052;52.056;5.296;2023-04-06T06:31:04;22.80;;;13.50;;
68234;SDS011;55052;52.056;5.296;2023-04-06T06:33:31;24.15;;;14.02;;
68234;SDS011;55052;52.056;5.296;2023-04-06T06:35:58;23.17;;;13.30;;
68234;SDS011;55052;52.056;5.296;2023-04-06T06:38:26;23.05;;;13.20;;
68234;SDS011;55052;52.056;5.296;2023-04-06T06:40:53;22.58;;;12.90;;
68234;SDS011;55052;52.056;5.296;2023-04-06T06:43:20;23.48;;;13.90;;
68234;SDS011;55052;52.056;5.296;2023-04-06T06:45:47;23.35;;;13.77;;
68234;SDS011;55052;52.056;5.296;2023-04-06T06:48:14;25.70;;;14.30;;
68234;SDS011;55052;52.056;5.296;2023-04-06T06:50:48;22.55;;;13.82;;
68234;SDS011;55052;52.056;5.296;2023-04-06T06:53:15;21.20;;;14.10;;
68234;SDS011;55052;52.056;5.296;2023-04-06T06:55:42;26.63;;;13.38;;
68234;SDS011;55052;52.056;5.296;2023-04-06T06:58:10;20.08;;;13.20;;
68234;SDS011;55052;52.056;5.296;2023-04-06T07:00:37;24.42;;;14.13;;
68234;SDS011;55052;52.056;5.296;2023-04-06T07:03:04;26.63;;;15.35;;
68234;SDS011;55052;52.056;5.296;2023-04-06T07:05:31;24.27;;;13.82;;
68234;SDS011;55052;52.056;5.296;2023-04-06T07:07:59;23.00;;;14.05;;
68234;SDS011;55052;52.056;5.296;2023-04-06T07:10:28;27.73;;;13.90;;
68234;SDS011;55052;52.056;5.296;2023-04-06T07:12:56;22.15;;;13.35;;
68234;SDS011;55052;52.056;5.296;2023-04-06T07:15:23;25.38;;;14.23;;
68234;SDS011;55052;52.056;5.296;2023-04-06T07:17:51;25.40;;;13.70;;
68234;SDS011;55052;52.056;5.296;2023-04-06T07:20:20;26.00;;;14.75;;
68234;SDS011;55052;52.056;5.296;2023-04-06T07:22:48;26.25;;;15.15;;
68234;SDS011;55052;52.056;5.296;2023-04-06T07:25:15;22.95;;;13.68;;
68234;SDS011;55052;52.056;5.296;2023-04-06T07:27:42;25.05;;;14.15;;
68234;SDS011;55052;52.056;5.296;2023-04-06T07:30:10;25.08;;;14.50;;
68234;SDS011;55052;52.056;5.296;2023-04-06T07:32:37;24.90;;;15.23;;
68234;SDS011;55052;52.056;5.296;2023-04-06T07:35:06;23.77;;;14.13;;
68234;SDS011;55052;52.056;5.296;2023-04-06T07:37:34;25.88;;;15.05;;
68234;SDS011;55052;52.056;5.296;2023-04-06T07:40:04;22.83;;;13.63;;
68234;SDS011;55052;52.056;5.296;2023-04-06T07:42:32;25.23;;;14.30;;
68234;SDS011;55052;52.056;5.296;2023-04-06T07:45:00;26.83;;;14.32;;
68234;SDS011;55052;52.056;5.296;2023-04-06T07:47:27;26.08;;;15.48;;
68234;SDS011;55052;52.056;5.296;2023-04-06T07:49:55;23.55;;;14.40;;
68234;SDS011;55052;52.056;5.296;2023-04-06T07:52:22;22.15;;;13.90;;
68234;SDS011;55052;52.056;5.296;2023-04-06T07:54:49;24.55;;;14.52;;
68234;SDS011;55052;52.056;5.296;2023-04-06T07:57:16;26.83;;;14.50;;
68234;SDS011;55052;52.056;5.296;2023-04-06T07:59:44;23.80;;;14.63;;
68234;SDS011;55052;52.056;5.296;2023-04-06T08:02:11;26.75;;;14.88;;
68234;SDS011;55052;52.056;5.296;2023-04-06T08:04:38;28.88;;;14.27;;
68234;SDS011;55052;52.056;5.296;2023-04-06T08:07:05;26.30;;;15.30;;
68234;SDS011;55052;52.056;5.296;2023-04-06T08:09:33;22.60;;;14.65;;
68234;SDS011;55052;52.056;5.296;2023-04-06T08:12:00;26.35;;;15.55;;
68234;SDS011;55052;52.056;5.296;2023-04-06T08:14:27;25.45;;;15.27;;
68234;SDS011;55052;52.056;5.296;2023-04-06T08:16:54;26.38;;;14.30;;
68234;SDS011;55052;52.056;5.296;2023-04-06T08:19:21;24.20;;;15.65;;
68234;SDS011;55052;52.056;5.296;2023-04-06T08:21:48;26.58;;;15.02;;
68234;SDS011;55052;52.056;5.296;2023-04-06T08:24:16;25.50;;;14.68;;
68234;SDS011;55052;52.056;5.296;2023-04-06T08:26:43;23.30;;;15.05;;
68234;SDS011;55052;52.056;5.296;2023-04-06T08:31:40;29.10;;;15.02;;
68234;SDS011;55052;52.056;5.296;2023-04-06T08:34:16;24.52;;;15.25;;
68234;SDS011;55052;52.056;5.296;2023-04-06T08:36:46;24.73;;;14.90;;
68234;SDS011;55052;52.056;5.296;2023-04-06T08:39:13;24.75;;;15.60;;
68234;SDS011;55052;52.056;5.296;2023-04-06T08:41:44;28.17;;;15.18;;
68234;SDS011;55052;52.056;5.296;2023-04-06T08:44:18;24.15;;;15.23;;
68234;SDS011;55052;52.056;5.296;2023-04-06T08:46:45;27.42;;;15.88;;
68234;SDS011;55052;52.056;5.296;2023-04-06T08:49:13;30.77;;;16.63;;
68234;SDS011;55052;52.056;5.296;2023-04-06T08:51:42;28.30;;;15.77;;
68234;SDS011;55052;52.056;5.296;2023-04-06T08:54:11;28.02;;;16.35;;
68234;SDS011;55052;52.056;5.296;2023-04-06T08:56:38;29.23;;;15.75;;
68234;SDS011;55052;52.056;5.296;2023-04-06T08:59:06;37.20;;;22.05;;
68234;SDS011;55052;52.056;5.296;2023-04-06T09:01:38;28.63;;;16.85;;
68234;SDS011;55052;52.056;5.296;2023-04-06T09:04:07;34.33;;;16.83;;
68234;SDS011;55052;52.056;5.296;2023-04-06T09:06:38;27.13;;;16.80;;
68234;SDS011;55052;52.056;5.296;2023-04-06T09:09:07;27.52;;;16.40;;
68234;SDS011;55052;52.056;5.296;2023-04-06T09:11:47;26.38;;;16.27;;
68234;SDS011;55052;52.056;5.296;2023-04-06T09:14:15;28.05;;;15.50;;
68234;SDS011;55052;52.056;5.296;2023-04-06T09:16:44;29.70;;;16.63;;
68234;SDS011;55052;52.056;5.296;2023-04-06T09:19:12;27.77;;;15.70;;
68234;SDS011;55052;52.056;5.296;2023-04-06T09:21:39;31.30;;;16.73;;
68234;SDS011;55052;52.056;5.296;2023-04-06T09:24:08;33.53;;;16.45;;
68234;SDS011;55052;52.056;5.296;2023-04-06T09:26:46;27.73;;;16.88;;
68234;SDS011;55052;52.056;5.296;2023-04-06T09:29:23;26.73;;;16.23;;
68234;SDS011;55052;52.056;5.296;2023-04-06T09:32:01;29.80;;;16.17;;
68234;SDS011;55052;52.056;5.296;2023-04-06T09:34:32;32.65;;;17.67;;
68234;SDS011;55052;52.056;5.296;2023-04-06T09:37:00;30.70;;;17.83;;
68234;SDS011;55052;52.056;5.296;2023-04-06T09:39:38;34.80;;;17.05;;
68234;SDS011;55052;52.056;5.296;2023-04-06T09:42:08;43.00;;;25.23;;
68234;SDS011;55052;52.056;5.296;2023-04-06T09:44:36;32.50;;;17.05;;
68234;SDS011;55052;52.056;5.296;2023-04-06T09:47:04;30.85;;;17.25;;
68234;SDS011;55052;52.056;5.296;2023-04-06T09:49:34;27.92;;;17.00;;
68234;SDS011;55052;52.056;5.296;2023-04-06T09:52:03;31.92;;;17.55;;
68234;SDS011;55052;52.056;5.296;2023-04-06T09:54:33;30.10;;;16.92;;
68234;SDS011;55052;52.056;5.296;2023-04-06T10:05:24;30.27;;;16.90;;
68234;SDS011;55052;52.056;5.296;2023-04-06T10:08:05;29.15;;;16.10;;
68234;SDS011;55052;52.056;5.296;2023-04-06T10:10:35;31.73;;;15.43;;
68234;SDS011;55052;52.056;5.296;2023-04-06T10:13:04;26.48;;;15.93;;
68234;SDS011;55052;52.056;5.296;2023-04-06T10:15:33;29.20;;;14.85;;
68234;SDS011;55052;52.056;5.296;2023-04-06T10:18:00;22.90;;;13.48;;
68234;SDS011;55052;52.056;5.296;2023-04-06T10:20:38;19.85;;;11.30;;
68234;SDS011;55052;52.056;5.296;2023-04-06T10:23:11;17.42;;;10.15;;
68234;SDS011;55052;52.056;5.296;2023-04-06T10:25:55;14.98;;;9.13;;
68234;SDS011;55052;52.056;5.296;2023-04-06T10:28:25;15.00;;;8.90;;
68234;SDS011;55052;52.056;5.296;2023-04-06T10:30:56;13.73;;;8.30;;
68234;SDS011;55052;52.056;5.296;2023-04-06T10:33:25;15.57;;;8.13;;
68234;SDS011;55052;52.056;5.296;2023-04-06T10:35:52;14.70;;;8.15;;
68234;SDS011;55052;52.056;5.296;2023-04-06T10:38:19;14.13;;;8.48;;
68234;SDS011;55052;52.056;5.296;2023-04-06T10:40:48;12.85;;;6.38;;
68234;SDS011;55052;52.056;5.296;2023-04-06T10:43:18;11.05;;;6.15;;
68234;SDS011;55052;52.056;5.296;2023-04-06T10:45:54;12.60;;;6.07;;
68234;SDS011;55052;52.056;5.296;2023-04-06T10:48:22;9.55;;;5.25;;
68234;SDS011;55052;52.056;5.296;2023-04-06T10:50:50;9.05;;;5.88;;
68234;SDS011;55052;52.056;5.296;2023-04-06T10:53:22;7.82;;;4.70;;
68234;SDS011;55052;52.056;5.296;2023-04-06T10:55:53;10.55;;;4.57;;
68234;SDS011;55052;52.056;5.296;2023-04-06T10:58:25;9.00;;;4.78;;
68234;SDS011;55052;52.056;5.296;2023-04-06T11:00:53;8.20;;;4.78;;
68234;SDS011;55052;52.056;5.296;2023-04-06T11:03:22;8.95;;;4.28;;
68234;SDS011;55052;52.056;5.296;2023-04-06T11:05:49;8.98;;;4.97;;
68234;SDS011;55052;52.056;5.296;2023-04-06T11:08:29;7.82;;;4.32;;
68234;SDS011;55052;52.056;5.296;2023-04-06T11:11:10;10.35;;;4.93;;
68234;SDS011;55052;52.056;5.296;2023-04-06T11:13:44;9.95;;;5.43;;
68234;SDS011;55052;52.056;5.296;2023-04-06T11:16:14;8.43;;;5.13;;
68234;SDS011;55052;52.056;5.296;2023-04-06T11:18:54;8.75;;;4.80;;
68234;SDS011;55052;52.056;5.296;2023-04-06T11:21:33;9.05;;;5.13;;
68234;SDS011;55052;52.056;5.296;2023-04-06T11:24:11;8.27;;;4.60;;
68234;SDS011;55052;52.056;5.296;2023-04-06T11:26:44;9.88;;;4.50;;
68234;SDS011;55052;52.056;5.296;2023-04-06T11:29:25;8.15;;;4.28;;
68234;SDS011;55052;52.056;5.296;2023-04-06T11:31:54;7.45;;;4.32;;
68234;SDS011;55052;52.056;5.296;2023-04-06T11:34:25;7.22;;;4.13;;
68234;SDS011;55052;52.056;5.296;2023-04-06T11:36:55;9.18;;;5.32;;
68234;SDS011;55052;52.056;5.296;2023-04-06T11:39:23;9.98;;;5.90;;
68234;SDS011;55052;52.056;5.296;2023-04-06T11:41:52;9.95;;;5.72;;
68234;SDS011;55052;52.056;5.296;2023-04-06T11:44:33;9.23;;;5.65;;
68234;SDS011;55052;52.056;5.296;2023-04-06T11:47:00;10.60;;;5.70;;
68234;SDS011;55052;52.056;5.296;2023-04-06T11:49:32;9.85;;;5.50;;
68234;SDS011;55052;52.056;5.296;2023-04-06T11:52:00;10.65;;;6.32;;
68234;SDS011;55052;52.056;5.296;2023-04-06T11:54:33;12.30;;;6.45;;
68234;SDS011;55052;52.056;5.296;2023-04-06T11:57:04;11.85;;;6.97;;
68234;SDS011;55052;52.056;5.296;2023-04-06T11:59:32;11.02;;;6.63;;
68234;SDS011;55052;52.056;5.296;2023-04-06T12:01:59;12.32;;;6.82;;
68234;SDS011;55052;52.056;5.296;2023-04-06T12:04:27;11.77;;;7.25;;
68234;SDS011;55052;52.056;5.296;2023-04-06T12:06:54;13.60;;;7.53;;
68234;SDS011;55052;52.056;5.296;2023-04-06T12:09:22;13.32;;;7.28;;
68234;SDS011;55052;52.056;5.296;2023-04-06T12:11:49;12.00;;;7.00;;
68234;SDS011;55052;52.056;5.296;2023-04-06T12:14:16;12.15;;;8.07;;
68234;SDS011;55052;52.056;5.296;2023-04-06T12:16:43;12.93;;;7.95;;
68234;SDS011;55052;52.056;5.296;2023-04-06T12:19:10;11.63;;;7.60;;
68234;SDS011;55052;52.056;5.296;2023-04-06T12:21:37;13.82;;;7.72;;
68234;SDS011;55052;52.056;5.296;2023-04-06T12:24:04;15.07;;;7.60;;
68234;SDS011;55052;52.056;5.296;2023-04-06T12:26:32;15.27;;;8.05;;
68234;SDS011;55052;52.056;5.296;2023-04-06T12:28:59;13.05;;;7.78;;
68234;SDS011;55052;52.056;5.296;2023-04-06T12:31:43;14.00;;;8.20;;
68234;SDS011;55052;52.056;5.296;2023-04-06T12:34:11;13.57;;;8.48;;
68234;SDS011;55052;52.056;5.296;2023-04-06T12:36:38;15.02;;;8.40;;
68234;SDS011;55052;52.056;5.296;2023-04-06T12:39:05;14.95;;;8.20;;
68234;SDS011;55052;52.056;5.296;2023-04-06T12:41:32;14.32;;;8.82;;
68234;SDS011;55052;52.056;5.296;2023-04-06T12:43:59;14.85;;;8.85;;
68234;SDS011;55052;52.056;5.296;2023-04-06T12:46:26;15.55;;;9.75;;
68234;SDS011;55052;52.056;5.296;2023-04-06T12:48:53;14.80;;;9.60;;
68234;SDS011;55052;52.056;5.296;2023-04-06T12:51:21;14.75;;;8.75;;
68234;SDS011;55052;52.056;5.296;2023-04-06T12:53:48;15.68;;;8.77;;
68234;SDS011;55052;52.056;5.296;2023-04-06T12:56:17;13.10;;;8.85;;
68234;SDS011;55052;52.056;5.296;2023-04-06T12:58:44;14.07;;;8.63;;
68234;SDS011;55052;52.056;5.296;2023-04-06T13:01:12;12.73;;;8.38;;
68234;SDS011;55052;52.056;5.296;2023-04-06T13:03:40;14.43;;;8.63;;
68234;SDS011;55052;52.056;5.296;2023-04-06T13:06:07;17.52;;;9.23;;
68234;SDS011;55052;52.056;5.296;2023-04-06T13:08:34;13.77;;;8.52;;
68234;SDS011;55052;52.056;5.296;2023-04-06T13:11:03;13.55;;;8.65;;
68234;SDS011;55052;52.056;5.296;2023-04-06T13:13:31;14.02;;;8.77;;
68234;SDS011;55052;52.056;5.296;2023-04-06T13:16:02;13.73;;;9.25;;
68234;SDS011;55052;52.056;5.296;2023-04-06T13:18:31;13.90;;;8.80;;
68234;SDS011;55052;52.056;5.296;2023-04-06T13:20:58;14.38;;;8.57;;
68234;SDS011;55052;52.056;5.296;2023-04-06T13:23:28;14.43;;;9.07;;
68234;SDS011;55052;52.056;5.296;2023-04-06T13:26:01;14.45;;;9.13;;
68234;SDS011;55052;52.056;5.296;2023-04-06T13:28:30;15.00;;;8.95;;
68234;SDS011;55052;52.056;5.296;2023-04-06T13:30:58;14.80;;;8.63;;
68234;SDS011;55052;52.056;5.296;2023-04-06T13:33:26;13.68;;;8.93;;
68234;SDS011;55052;52.056;5.296;2023-04-06T13:35:54;16.48;;;8.98;;
68234;SDS011;55052;52.056;5.296;2023-04-06T13:38:21;13.75;;;9.27;;
68234;SDS011;55052;52.056;5.296;2023-04-06T13:40:50;13.65;;;8.95;;
68234;SDS011;55052;52.056;5.296;2023-04-06T13:43:17;15.63;;;9.15;;
68234;SDS011;55052;52.056;5.296;2023-04-06T13:45:50;15.77;;;9.27;;
68234;SDS011;55052;52.056;5.296;2023-04-06T13:48:18;17.02;;;9.27;;
68234;SDS011;55052;52.056;5.296;2023-04-06T13:50:45;13.90;;;8.98;;
68234;SDS011;55052;52.056;5.296;2023-04-06T13:53:13;16.75;;;9.35;;
68234;SDS011;55052;52.056;5.296;2023-04-06T13:55:40;15.45;;;9.77;;
68234;SDS011;55052;52.056;5.296;2023-04-06T13:58:07;15.18;;;10.13;;
68234;SDS011;55052;52.056;5.296;2023-04-06T14:00:33;19.65;;;9.57;;
68234;SDS011;55052;52.056;5.296;2023-04-06T14:03:01;15.40;;;9.63;;
68234;SDS011;55052;52.056;5.296;2023-04-06T14:05:31;13.52;;;8.48;;
68234;SDS011;55052;52.056;5.296;2023-04-06T14:07:58;16.83;;;9.32;;
68234;SDS011;55052;52.056;5.296;2023-04-06T14:10:25;16.90;;;9.05;;
68234;SDS011;55052;52.056;5.296;2023-04-06T14:12:54;13.27;;;8.77;;
68234;SDS011;55052;52.056;5.296;2023-04-06T14:15:21;14.10;;;9.15;;
68234;SDS011;55052;52.056;5.296;2023-04-06T14:17:48;14.77;;;9.20;;
68234;SDS011;55052;52.056;5.296;2023-04-06T14:20:16;15.85;;;9.63;;
68234;SDS011;55052;52.056;5.296;2023-04-06T14:22:43;17.23;;;8.98;;
68234;SDS011;55052;52.056;5.296;2023-04-06T14:25:10;14.18;;;8.93;;
68234;SDS011;55052;52.056;5.296;2023-04-06T14:27:37;13.73;;;8.38;;
68234;SDS011;55052;52.056;5.296;2023-04-06T14:30:04;14.20;;;8.73;;
68234;SDS011;55052;52.056;5.296;2023-04-06T14:32:32;16.75;;;9.30;;
68234;SDS011;55052;52.056;5.296;2023-04-06T14:34:59;13.73;;;8.50;;
68234;SDS011;55052;52.056;5.296;2023-04-06T14:37:25;13.98;;;8.30;;
68234;SDS011;55052;52.056;5.296;2023-04-06T14:39:53;16.58;;;8.85;;
68234;SDS011;55052;52.056;5.296;2023-04-06T14:42:19;14.48;;;8.13;;
68234;SDS011;55052;52.056;5.296;2023-04-06T14:44:46;12.02;;;7.65;;
68234;SDS011;55052;52.056;5.296;2023-04-06T14:47:14;15.35;;;7.80;;